createdAt,value
2018-12-22T00:00:45.892Z,85.23
2018-12-22T00:01:45.884Z,85.44
2018-12-22T00:02:45.872Z,85.44
2018-12-22T00:03:45.865Z,85.50
2018-12-22T00:04:45.885Z,85.19
2018-12-22T00:05:45.838Z,84.78
2018-12-22T00:06:45.831Z,84.72
2018-12-22T00:07:45.818Z,84.78
2018-12-22T00:08:45.808Z,84.78
2018-12-22T00:09:45.796Z,84.47
2018-12-22T00:10:45.823Z,84.88
2018-12-22T00:11:45.776Z,85.09
2018-12-22T00:12:45.768Z,84.58
2018-12-22T00:13:45.752Z,85.39
2018-12-22T00:14:45.742Z,85.13
2018-12-22T00:15:45.732Z,85.30
2018-12-22T00:16:45.866Z,85.39
2018-12-22T00:17:45.709Z,85.54
2018-12-22T00:18:45.699Z,86.05
2018-12-22T00:19:45.689Z,86.15
2018-12-22T00:20:45.677Z,86.32
2018-12-22T00:21:45.667Z,86.15
2018-12-22T00:22:45.695Z,86.15
2018-12-22T00:23:45.646Z,86.46
2018-12-22T00:24:45.635Z,86.73
2018-12-22T00:25:45.628Z,86.93
2018-12-22T00:26:45.611Z,86.87
2018-12-22T00:27:45.602Z,86.46
2018-12-22T00:28:45.628Z,86.66
2018-12-22T00:29:45.579Z,87.08
2018-12-22T00:30:45.571Z,87.18
2018-12-22T00:31:45.560Z,87.38
2018-12-22T00:32:45.548Z,87.49
2018-12-22T00:33:45.539Z,87.38
2018-12-22T00:34:45.565Z,87.49
2018-12-22T00:35:45.523Z,87.38
2018-12-22T00:36:45.508Z,87.38
2018-12-22T00:37:45.496Z,87.49
2018-12-22T00:38:45.481Z,87.59
2018-12-22T00:39:45.473Z,87.49
2018-12-22T00:40:45.500Z,87.28
2018-12-22T00:41:45.451Z,87.08
2018-12-22T00:42:45.440Z,87.38
2018-12-22T00:43:45.428Z,87.70
2018-12-22T00:44:45.419Z,87.94
2018-12-22T00:45:45.418Z,87.43
2018-12-22T00:46:45.433Z,87.49
2018-12-22T00:47:45.386Z,87.43
2018-12-22T00:48:45.378Z,87.32
2018-12-22T00:49:45.377Z,86.71
2018-12-22T00:50:45.365Z,86.71
2018-12-22T00:51:45.343Z,86.46
2018-12-22T00:52:45.372Z,86.09
2018-12-22T00:53:45.320Z,86.30
2018-12-22T00:54:45.312Z,86.36
2018-12-22T00:55:45.301Z,85.74
2018-12-22T00:56:45.289Z,86.19
2018-12-22T00:57:45.280Z,86.40
2018-12-22T00:58:45.310Z,86.40
2018-12-22T00:59:45.259Z,85.58
2018-12-22T01:00:45.247Z,85.99
2018-12-22T01:01:45.235Z,85.58
2018-12-22T01:02:45.227Z,85.89
2018-12-22T01:03:45.216Z,84.96
2018-12-22T01:04:45.239Z,85.62
2018-12-22T01:05:45.195Z,85.27
2018-12-22T01:06:45.184Z,85.17
2018-12-22T01:07:45.172Z,84.86
2018-12-22T01:08:45.162Z,84.86
2018-12-22T01:09:45.151Z,84.86
2018-12-22T01:10:45.177Z,85.31
2018-12-22T01:11:45.129Z,84.55
2018-12-22T01:12:45.118Z,83.94
2018-12-22T01:13:45.108Z,84.04
2018-12-22T01:14:45.100Z,83.05
2018-12-22T01:15:45.086Z,82.19
2018-12-22T01:16:45.113Z,82.09
2018-12-22T01:17:45.069Z,82.09
2018-12-22T01:18:45.054Z,81.37
2018-12-22T01:19:45.045Z,81.27
2018-12-22T01:20:45.035Z,80.76
2018-12-22T01:21:45.022Z,81.06
2018-12-22T01:22:45.048Z,80.35
2018-12-22T01:23:45.001Z,80.45
2018-12-22T01:24:44.990Z,79.42
2018-12-22T01:25:44.985Z,78.81
2018-12-22T01:26:44.968Z,78.81
2018-12-22T01:27:44.958Z,78.19
2018-12-22T01:28:44.983Z,77.47
2018-12-22T01:29:44.935Z,77.47
2018-12-22T01:30:44.924Z,77.26
2018-12-22T01:31:44.913Z,77.13
2018-12-22T01:32:44.904Z,77.64
2018-12-22T01:33:44.892Z,76.04
2018-12-22T01:34:44.922Z,75.83
2018-12-22T01:35:44.875Z,75.59
2018-12-22T01:36:44.865Z,75.42
2018-12-22T01:37:44.851Z,75.79
2018-12-22T01:38:44.840Z,75.32
2018-12-22T01:39:44.831Z,75.38
2018-12-22T01:40:44.855Z,75.52
2018-12-22T01:41:44.808Z,75.49
2018-12-22T01:42:44.796Z,75.62
2018-12-22T01:43:44.785Z,75.11
2018-12-22T01:44:44.773Z,75.52
2018-12-22T01:45:44.764Z,75.42
2018-12-22T01:46:44.790Z,76.34
2018-12-22T01:47:44.746Z,76.31
2018-12-22T01:48:44.732Z,75.32
2018-12-22T01:49:44.721Z,75.42
2018-12-22T01:50:44.710Z,75.42
2018-12-22T01:51:44.699Z,75.93
2018-12-22T01:52:44.725Z,75.73
2018-12-22T01:53:44.678Z,75.52
2018-12-22T01:54:44.667Z,76.04
2018-12-22T01:55:44.657Z,76.34
2018-12-22T01:56:44.649Z,76.04
2018-12-22T01:57:44.635Z,76.17
2018-12-22T01:58:47.895Z,75.97
2018-12-22T01:59:44.615Z,76.68
2018-12-22T02:00:44.603Z,76.89
2018-12-22T02:01:44.593Z,77.30
2018-12-22T02:02:44.579Z,77.30
2018-12-22T02:03:44.571Z,77.00
2018-12-22T02:04:44.598Z,76.48
2018-12-22T02:05:44.550Z,76.28
2018-12-22T02:06:44.539Z,74.94
2018-12-22T02:07:44.534Z,75.45
2018-12-22T02:08:44.517Z,75.35
2018-12-22T02:09:44.517Z,75.38
2018-12-22T02:10:44.530Z,75.59
2018-12-22T02:11:44.485Z,75.38
2018-12-22T02:12:44.519Z,75.80
2018-12-22T02:13:44.462Z,75.90
2018-12-22T02:14:44.452Z,75.66
2018-12-22T02:15:44.444Z,75.70
2018-12-22T02:16:44.469Z,75.49
2018-12-22T02:17:44.425Z,75.70
2018-12-22T02:18:44.413Z,76.00
2018-12-22T02:19:44.399Z,75.70
2018-12-22T02:20:44.390Z,74.53
2018-12-22T02:21:44.378Z,74.67
2018-12-22T02:22:44.406Z,76.42
2018-12-22T02:23:44.356Z,75.66
2018-12-22T02:24:44.347Z,75.59
2018-12-22T02:25:44.333Z,75.76
2018-12-22T02:26:44.325Z,75.70
2018-12-22T02:27:44.317Z,76.51
2018-12-22T02:28:44.340Z,76.62
2018-12-22T02:29:44.291Z,77.00
2018-12-22T02:30:44.282Z,76.93
2018-12-22T02:31:44.286Z,77.44
2018-12-22T02:32:44.262Z,77.65
2018-12-22T02:33:44.248Z,77.44
2018-12-22T02:34:44.277Z,77.65
2018-12-22T02:35:44.231Z,77.75
2018-12-22T02:36:44.218Z,77.95
2018-12-22T02:37:44.206Z,77.85
2018-12-22T02:38:44.197Z,77.03
2018-12-22T02:39:44.187Z,77.13
2018-12-22T02:40:44.209Z,77.44
2018-12-22T02:41:44.164Z,76.97
2018-12-22T02:42:44.157Z,77.06
2018-12-22T02:43:44.140Z,76.31
2018-12-22T02:44:44.132Z,76.10
2018-12-22T02:45:44.121Z,76.35
2018-12-22T02:46:44.156Z,76.14
2018-12-22T02:47:44.096Z,76.21
2018-12-22T02:48:44.087Z,76.35
2018-12-22T02:49:44.075Z,76.14
2018-12-22T02:50:44.066Z,76.25
2018-12-22T02:51:44.055Z,76.14
2018-12-22T02:52:44.085Z,76.45
2018-12-22T02:53:44.033Z,76.14
2018-12-22T02:54:44.020Z,76.35
2018-12-22T02:55:44.010Z,76.76
2018-12-22T02:56:44.000Z,76.65
2018-12-22T02:57:43.989Z,76.45
2018-12-22T02:58:44.013Z,76.65
2018-12-22T02:59:43.971Z,76.76
2018-12-22T03:00:43.956Z,76.65
2018-12-22T03:01:43.945Z,76.76
2018-12-22T03:02:43.937Z,77.06
2018-12-22T03:03:43.924Z,77.20
2018-12-22T03:04:43.954Z,76.90
2018-12-22T03:05:43.902Z,77.17
2018-12-22T03:06:43.891Z,77.06
2018-12-22T03:07:43.889Z,77.62
2018-12-22T03:08:43.871Z,77.41
2018-12-22T03:09:43.861Z,77.51
2018-12-22T03:10:43.887Z,77.82
2018-12-22T03:11:43.838Z,77.82
2018-12-22T03:12:43.826Z,78.13
2018-12-22T03:13:43.816Z,77.72
2018-12-22T03:14:43.813Z,77.62
2018-12-22T03:15:43.799Z,77.92
2018-12-22T03:16:43.819Z,78.13
2018-12-22T03:17:43.772Z,77.92
2018-12-22T03:18:43.759Z,77.92
2018-12-22T03:19:43.754Z,77.72
2018-12-22T03:20:43.739Z,77.92
2018-12-22T03:21:43.734Z,77.41
2018-12-22T03:22:43.753Z,77.51
2018-12-22T03:23:43.709Z,77.82
2018-12-22T03:24:43.696Z,77.72
2018-12-22T03:25:43.686Z,77.86
2018-12-22T03:26:43.674Z,77.62
2018-12-22T03:27:43.662Z,77.51
2018-12-22T03:28:43.690Z,77.41
2018-12-22T03:29:43.642Z,77.55
2018-12-22T03:30:43.631Z,77.51
2018-12-22T03:31:43.629Z,77.00
2018-12-22T03:32:43.611Z,77.51
2018-12-22T03:33:43.597Z,77.51
2018-12-22T03:34:43.625Z,77.31
2018-12-22T03:35:43.574Z,77.72
2018-12-22T03:36:43.565Z,77.72
2018-12-22T03:37:43.556Z,77.75
2018-12-22T03:38:43.540Z,77.96
2018-12-22T03:39:43.532Z,78.13
2018-12-22T03:40:43.558Z,77.62
2018-12-22T03:41:43.510Z,77.82
2018-12-22T03:42:43.498Z,77.65
2018-12-22T03:43:43.487Z,77.51
2018-12-22T03:44:43.481Z,78.03
2018-12-22T03:45:43.465Z,78.06
2018-12-22T03:46:43.492Z,77.65
2018-12-22T03:47:43.448Z,77.86
2018-12-22T03:48:43.436Z,77.75
2018-12-22T03:49:43.425Z,77.72
2018-12-22T03:50:43.412Z,77.51
2018-12-22T03:51:43.399Z,77.65
2018-12-22T03:52:43.423Z,77.55
2018-12-22T03:53:43.376Z,77.45
2018-12-22T03:54:43.367Z,77.86
2018-12-22T03:55:43.357Z,77.75
2018-12-22T03:56:43.345Z,77.96
2018-12-22T03:57:43.336Z,77.75
2018-12-22T03:58:43.359Z,77.03
2018-12-22T03:59:43.312Z,77.45
2018-12-22T04:00:43.304Z,77.65
2018-12-22T04:01:43.297Z,77.86
2018-12-22T04:02:43.278Z,77.55
2018-12-22T04:03:43.270Z,77.55
2018-12-22T04:04:43.292Z,77.45
2018-12-22T04:05:43.247Z,77.55
2018-12-22T04:06:43.236Z,77.14
2018-12-22T04:07:43.232Z,77.24
2018-12-22T04:08:43.212Z,77.14
2018-12-22T04:09:43.204Z,76.62
2018-12-22T04:10:43.231Z,76.11
2018-12-22T04:11:43.180Z,76.31
2018-12-22T04:12:43.171Z,76.21
2018-12-22T04:13:43.157Z,76.62
2018-12-22T04:14:43.145Z,76.31
2018-12-22T04:15:43.134Z,75.18
2018-12-22T04:16:43.159Z,75.70
2018-12-22T04:17:43.114Z,75.90
2018-12-22T04:18:43.101Z,75.73
2018-12-22T04:19:43.097Z,75.90
2018-12-22T04:20:43.080Z,75.49
2018-12-22T04:21:43.070Z,75.90
2018-12-22T04:22:43.091Z,75.52
2018-12-22T04:23:43.046Z,75.80
2018-12-22T04:24:43.035Z,75.94
2018-12-22T04:25:43.024Z,75.80
2018-12-22T04:26:43.013Z,75.80
2018-12-22T04:27:43.008Z,75.01
2018-12-22T04:28:43.017Z,74.77
2018-12-22T04:29:42.981Z,74.77
2018-12-22T04:30:42.971Z,73.95
2018-12-22T04:31:42.961Z,74.87
2018-12-22T04:32:42.949Z,74.77
2018-12-22T04:33:42.962Z,74.67
2018-12-22T04:34:42.925Z,74.60
2018-12-22T04:35:42.915Z,74.46
2018-12-22T04:36:42.903Z,74.80
2018-12-22T04:37:42.890Z,74.80
2018-12-22T04:38:42.906Z,74.70
2018-12-22T04:39:42.873Z,74.70
2018-12-22T04:40:42.857Z,74.26
2018-12-22T04:41:42.848Z,74.05
2018-12-22T04:42:42.848Z,74.05
2018-12-22T04:43:42.852Z,74.67
2018-12-22T04:44:42.821Z,73.98
2018-12-22T04:45:42.804Z,74.70
2018-12-22T04:46:42.792Z,74.70
2018-12-22T04:47:42.793Z,74.19
2018-12-22T04:48:42.829Z,74.80
2018-12-22T04:49:42.761Z,74.29
2018-12-22T04:50:42.749Z,74.67
2018-12-22T04:51:42.737Z,74.80
2018-12-22T04:52:42.729Z,74.60
2018-12-22T04:53:42.751Z,74.50
2018-12-22T04:54:42.704Z,75.80
2018-12-22T04:55:42.695Z,75.01
2018-12-22T04:56:42.681Z,74.91
2018-12-22T04:57:42.673Z,74.50
2018-12-22T04:58:42.683Z,74.60
2018-12-22T04:59:43.175Z,75.01
2018-12-22T05:00:42.640Z,75.01
2018-12-22T05:01:42.634Z,75.12
2018-12-22T05:02:42.618Z,74.91
2018-12-22T05:03:42.631Z,74.80
2018-12-22T05:04:42.595Z,75.12
2018-12-22T05:05:42.584Z,75.63
2018-12-22T05:06:42.572Z,75.32
2018-12-22T05:07:42.565Z,75.84
2018-12-22T05:08:42.577Z,75.73
2018-12-22T05:09:42.542Z,75.52
2018-12-22T05:10:42.529Z,75.42
2018-12-22T05:11:42.549Z,75.42
2018-12-22T05:12:42.507Z,75.22
2018-12-22T05:13:42.522Z,75.63
2018-12-22T05:14:42.485Z,75.12
2018-12-22T05:15:42.475Z,75.73
2018-12-22T05:16:42.465Z,75.94
2018-12-22T05:17:42.455Z,75.87
2018-12-22T05:18:42.467Z,75.73
2018-12-22T05:19:42.437Z,75.63
2018-12-22T05:20:42.421Z,76.04
2018-12-22T05:21:42.410Z,75.73
2018-12-22T05:22:42.398Z,76.49
2018-12-22T05:23:42.414Z,76.14
2018-12-22T05:24:42.378Z,76.70
2018-12-22T05:25:42.367Z,76.25
2018-12-22T05:26:42.355Z,76.07
2018-12-22T05:27:42.344Z,75.94
2018-12-22T05:28:42.359Z,76.35
2018-12-22T05:29:42.323Z,76.14
2018-12-22T05:30:42.314Z,76.14
2018-12-22T05:31:42.302Z,76.59
2018-12-22T05:32:42.317Z,76.76
2018-12-22T05:33:42.282Z,76.86
2018-12-22T05:34:42.270Z,76.25
2018-12-22T05:35:42.259Z,76.25
2018-12-22T05:36:42.248Z,76.25
2018-12-22T05:37:42.264Z,76.35
2018-12-22T05:38:42.233Z,76.25
2018-12-22T05:39:42.218Z,76.14
2018-12-22T05:40:42.206Z,76.66
2018-12-22T05:41:42.197Z,76.35
2018-12-22T05:42:42.209Z,76.45
2018-12-22T05:43:42.175Z,76.04
2018-12-22T05:44:42.164Z,76.35
2018-12-22T05:45:42.168Z,76.14
2018-12-22T05:46:42.142Z,76.35
2018-12-22T05:47:42.157Z,76.14
2018-12-22T05:48:42.123Z,76.04
2018-12-22T05:49:42.111Z,76.25
2018-12-22T05:50:42.116Z,77.17
2018-12-22T05:51:42.089Z,76.45
2018-12-22T05:52:42.103Z,77.07
2018-12-22T05:53:42.078Z,76.25
2018-12-22T05:54:42.063Z,76.35
2018-12-22T05:55:42.045Z,77.07
2018-12-22T05:56:42.035Z,76.70
2018-12-22T05:57:42.050Z,76.59
2018-12-22T05:58:42.020Z,76.25
2018-12-22T05:59:42.006Z,76.56
2018-12-22T06:00:41.996Z,75.97
2018-12-22T06:01:41.985Z,75.97
2018-12-22T06:02:41.995Z,75.73
2018-12-22T06:03:41.963Z,75.73
2018-12-22T06:04:41.950Z,75.52
2018-12-22T06:05:41.942Z,76.07
2018-12-22T06:06:41.928Z,75.73
2018-12-22T06:07:41.943Z,76.49
2018-12-22T06:08:41.908Z,76.28
2018-12-22T06:09:41.898Z,76.28
2018-12-22T06:10:41.888Z,76.49
2018-12-22T06:11:41.882Z,76.39
2018-12-22T06:12:41.891Z,76.39
2018-12-22T06:13:41.853Z,76.18
2018-12-22T06:14:41.845Z,76.07
2018-12-22T06:15:41.833Z,76.39
2018-12-22T06:16:41.821Z,76.28
2018-12-22T06:17:41.917Z,76.70
2018-12-22T06:18:41.799Z,76.39
2018-12-22T06:19:41.789Z,76.90
2018-12-22T06:20:41.777Z,76.28
2018-12-22T06:21:41.769Z,76.25
2018-12-22T06:22:41.781Z,76.79
2018-12-22T06:23:41.884Z,76.28
2018-12-22T06:24:41.735Z,77.00
2018-12-22T06:25:41.726Z,76.28
2018-12-22T06:26:41.722Z,76.59
2018-12-22T06:27:41.732Z,76.28
2018-12-22T06:28:41.698Z,76.28
2018-12-22T06:29:41.685Z,77.21
2018-12-22T06:30:41.686Z,77.00
2018-12-22T06:31:41.663Z,77.42
2018-12-22T06:32:41.679Z,76.90
2018-12-22T06:33:41.649Z,76.90
2018-12-22T06:34:41.631Z,76.70
2018-12-22T06:35:41.619Z,77.21
2018-12-22T06:36:41.610Z,77.11
2018-12-22T06:37:41.630Z,76.90
2018-12-22T06:38:41.604Z,77.11
2018-12-22T06:39:41.584Z,76.90
2018-12-22T06:40:41.566Z,76.59
2018-12-22T06:41:41.558Z,77.00
2018-12-22T06:42:41.583Z,77.11
2018-12-22T06:43:41.575Z,76.28
2018-12-22T06:44:41.534Z,76.59
2018-12-22T06:45:41.519Z,76.59
2018-12-22T06:46:41.509Z,76.49
2018-12-22T06:47:41.499Z,76.28
2018-12-22T06:48:41.481Z,76.59
2018-12-22T06:49:41.506Z,76.28
2018-12-22T06:50:41.463Z,76.28
2018-12-22T06:51:41.449Z,77.21
2018-12-22T06:52:41.448Z,77.00
2018-12-22T06:53:42.105Z,76.90
2018-12-22T06:54:41.418Z,77.00
2018-12-22T06:55:41.432Z,76.59
2018-12-22T06:56:41.400Z,76.90
2018-12-22T06:57:41.387Z,77.31
2018-12-22T06:58:41.376Z,77.00
2018-12-22T06:59:41.366Z,77.21
2018-12-22T07:00:41.379Z,77.35
2018-12-22T07:01:41.344Z,77.51
2018-12-22T07:02:41.334Z,77.51
2018-12-22T07:03:41.323Z,77.31
2018-12-22T07:04:41.313Z,77.62
2018-12-22T07:05:41.338Z,77.83
2018-12-22T07:06:41.292Z,77.97
2018-12-22T07:07:41.280Z,77.55
2018-12-22T07:08:41.269Z,77.66
2018-12-22T07:09:41.261Z,78.28
2018-12-22T07:10:41.251Z,78.17
2018-12-22T07:11:41.276Z,78.07
2018-12-22T07:12:41.228Z,78.07
2018-12-22T07:13:41.217Z,78.48
2018-12-22T07:14:41.210Z,78.58
2018-12-22T07:15:41.196Z,78.48
2018-12-22T07:16:41.188Z,78.89
2018-12-22T07:17:41.210Z,78.89
2018-12-22T07:18:41.165Z,78.79
2018-12-22T07:19:41.165Z,78.89
2018-12-22T07:20:41.145Z,78.89
2018-12-22T07:21:41.134Z,79.00
2018-12-22T07:22:41.123Z,79.51
2018-12-22T07:23:41.151Z,79.24
2018-12-22T07:24:41.100Z,79.55
2018-12-22T07:25:41.090Z,79.14
2018-12-22T07:26:41.082Z,79.44
2018-12-22T07:27:41.071Z,79.44
2018-12-22T07:28:41.058Z,79.65
2018-12-22T07:29:41.085Z,79.75
2018-12-22T07:30:41.037Z,79.86
2018-12-22T07:31:41.028Z,80.37
2018-12-22T07:32:41.016Z,80.37
2018-12-22T07:33:41.009Z,80.27
2018-12-22T07:34:40.995Z,80.16
2018-12-22T07:35:41.011Z,80.27
2018-12-22T07:36:40.978Z,80.37
2018-12-22T07:37:40.967Z,80.27
2018-12-22T07:38:40.952Z,80.37
2018-12-22T07:39:40.944Z,80.27
2018-12-22T07:40:40.958Z,80.37
2018-12-22T07:41:40.922Z,80.23
2018-12-22T07:42:40.910Z,80.58
2018-12-22T07:43:40.907Z,80.47
2018-12-22T07:44:40.890Z,80.33
2018-12-22T07:45:40.916Z,80.47
2018-12-22T07:46:40.869Z,80.79
2018-12-22T07:47:40.857Z,80.47
2018-12-22T07:48:40.847Z,80.58
2018-12-22T07:49:40.836Z,80.37
2018-12-22T07:50:40.824Z,80.47
2018-12-22T07:51:40.851Z,80.27
2018-12-22T07:52:40.802Z,80.99
2018-12-22T07:53:40.792Z,80.68
2018-12-22T07:54:40.784Z,80.47
2018-12-22T07:55:40.775Z,80.37
2018-12-22T07:56:40.776Z,80.27
2018-12-22T07:57:40.789Z,80.47
2018-12-22T07:58:40.743Z,80.47
2018-12-22T07:59:40.734Z,80.68
2018-12-22T08:00:40.731Z,80.47
2018-12-22T08:01:40.719Z,80.47
2018-12-22T08:02:40.701Z,80.89
2018-12-22T08:03:40.729Z,80.27
2018-12-22T08:04:40.678Z,80.44
2018-12-22T08:05:40.673Z,80.47
2018-12-22T08:06:40.654Z,80.06
2018-12-22T08:07:40.644Z,80.68
2018-12-22T08:08:40.634Z,80.95
2018-12-22T08:09:40.659Z,80.79
2018-12-22T08:10:40.611Z,80.33
2018-12-22T08:11:40.601Z,80.37
2018-12-22T08:12:40.591Z,80.99
2018-12-22T08:13:40.583Z,80.99
2018-12-22T08:14:40.570Z,80.47
2018-12-22T08:15:40.586Z,80.06
2018-12-22T08:16:40.549Z,80.79
2018-12-22T08:17:40.546Z,80.58
2018-12-22T08:18:40.529Z,80.16
2018-12-22T08:19:40.524Z,80.13
2018-12-22T08:20:40.544Z,81.09
2018-12-22T08:21:40.497Z,80.79
2018-12-22T08:22:40.486Z,80.58
2018-12-22T08:23:40.475Z,80.16
2018-12-22T08:24:40.464Z,80.79
2018-12-22T08:25:40.515Z,80.79
2018-12-22T08:26:40.771Z,80.68
2018-12-22T08:27:43.379Z,80.44
2018-12-22T08:28:41.340Z,80.27
2018-12-22T08:29:40.487Z,80.79
2018-12-22T08:30:43.987Z,80.54
2018-12-22T08:31:43.260Z,80.58
2018-12-22T08:32:40.501Z,81.05
2018-12-22T08:33:40.373Z,80.23
2018-12-22T08:34:40.359Z,80.95
2018-12-22T08:35:40.352Z,80.13
2018-12-22T08:36:40.337Z,80.33
2018-12-22T08:37:40.366Z,80.23
2018-12-22T08:38:40.317Z,80.75
2018-12-22T08:39:40.316Z,80.44
2018-12-22T08:40:40.327Z,81.05
2018-12-22T08:41:40.286Z,80.95
2018-12-22T08:42:40.287Z,80.33
2018-12-22T08:43:40.304Z,80.75
2018-12-22T08:44:40.255Z,80.44
2018-12-22T08:45:40.242Z,81.16
2018-12-22T08:46:40.242Z,80.23
2018-12-22T08:47:40.227Z,80.95
2018-12-22T08:48:40.214Z,80.65
2018-12-22T08:49:40.239Z,80.65
2018-12-22T08:50:40.190Z,80.65
2018-12-22T08:51:40.190Z,80.65
2018-12-22T08:52:40.172Z,80.85
2018-12-22T08:53:40.161Z,80.95
2018-12-22T08:54:40.150Z,80.85
2018-12-22T08:55:40.164Z,81.05
2018-12-22T08:56:40.133Z,81.77
2018-12-22T08:57:40.116Z,81.26
2018-12-22T08:58:40.112Z,81.47
2018-12-22T08:59:40.098Z,81.98
2018-12-22T09:00:40.112Z,81.67
2018-12-22T09:01:40.078Z,82.19
2018-12-22T09:02:40.064Z,82.09
2018-12-22T09:03:40.052Z,82.19
2018-12-22T09:04:40.043Z,82.09
2018-12-22T09:05:40.072Z,81.57
2018-12-22T09:06:40.021Z,81.37
2018-12-22T09:07:40.011Z,81.88
2018-12-22T09:08:39.998Z,81.88
2018-12-22T09:09:39.989Z,81.67
2018-12-22T09:10:39.984Z,81.67
2018-12-22T09:11:40.071Z,81.47
2018-12-22T09:12:39.958Z,81.63
2018-12-22T09:13:39.946Z,81.74
2018-12-22T09:14:39.937Z,81.05
2018-12-22T09:15:39.925Z,81.47
2018-12-22T09:16:39.915Z,80.85
2018-12-22T09:17:39.940Z,81.16
2018-12-22T09:18:39.894Z,81.37
2018-12-22T09:19:39.884Z,81.67
2018-12-22T09:20:39.874Z,81.37
2018-12-22T09:21:39.864Z,81.05
2018-12-22T09:22:39.854Z,81.26
2018-12-22T09:23:39.878Z,81.05
2018-12-22T09:24:39.832Z,81.57
2018-12-22T09:25:39.822Z,80.85
2018-12-22T09:26:39.816Z,81.37
2018-12-22T09:27:39.800Z,81.26
2018-12-22T09:28:39.795Z,81.77
2018-12-22T09:29:39.817Z,81.26
2018-12-22T09:30:39.771Z,81.67
2018-12-22T09:31:39.758Z,82.09
2018-12-22T09:32:39.746Z,82.29
2018-12-22T09:33:39.737Z,82.02
2018-12-22T09:34:39.724Z,81.92
2018-12-22T09:35:39.742Z,81.98
2018-12-22T09:36:39.705Z,82.19
2018-12-22T09:37:39.697Z,82.29
2018-12-22T09:38:39.684Z,82.12
2018-12-22T09:39:39.673Z,82.23
2018-12-22T09:40:39.712Z,81.61
2018-12-22T09:41:39.653Z,82.12
2018-12-22T09:42:39.643Z,81.98
2018-12-22T09:43:39.642Z,81.77
2018-12-22T09:44:39.634Z,81.67
2018-12-22T09:45:39.647Z,81.98
2018-12-22T09:46:39.603Z,81.77
2018-12-22T09:47:39.593Z,81.57
2018-12-22T09:48:39.579Z,81.47
2018-12-22T09:49:39.573Z,81.98
2018-12-22T09:50:39.633Z,82.09
2018-12-22T09:51:39.588Z,81.67
2018-12-22T09:52:39.536Z,81.47
2018-12-22T09:53:39.527Z,81.77
2018-12-22T09:54:39.519Z,81.26
2018-12-22T09:55:39.511Z,81.47
2018-12-22T09:56:39.496Z,80.85
2018-12-22T09:57:39.521Z,81.47
2018-12-22T09:58:39.476Z,81.77
2018-12-22T09:59:39.462Z,81.37
2018-12-22T10:00:39.452Z,81.26
2018-12-22T10:01:39.442Z,81.92
2018-12-22T10:02:39.431Z,81.51
2018-12-22T10:03:39.456Z,81.30
2018-12-22T10:04:39.408Z,81.20
2018-12-22T10:05:39.399Z,81.09
2018-12-22T10:06:39.390Z,81.47
2018-12-22T10:07:39.378Z,80.89
2018-12-22T10:08:39.368Z,81.47
2018-12-22T10:09:39.393Z,81.51
2018-12-22T10:10:39.398Z,81.47
2018-12-22T10:11:39.337Z,81.47
2018-12-22T10:12:39.323Z,81.77
2018-12-22T10:13:39.314Z,80.75
2018-12-22T10:14:39.305Z,81.57
2018-12-22T10:15:39.318Z,80.75
2018-12-22T10:16:39.285Z,80.75
2018-12-22T10:17:39.271Z,81.05
2018-12-22T10:18:39.261Z,80.95
2018-12-22T10:19:39.250Z,80.95
2018-12-22T10:20:39.267Z,81.16
2018-12-22T10:21:39.230Z,80.23
2018-12-22T10:22:39.219Z,79.51
2018-12-22T10:23:39.210Z,78.58
2018-12-22T10:24:39.201Z,78.38
2018-12-22T10:25:39.286Z,78.21
2018-12-22T10:26:39.179Z,77.80
2018-12-22T10:27:39.167Z,77.69
2018-12-22T10:28:39.158Z,77.14
2018-12-22T10:29:39.148Z,76.04
2018-12-22T10:30:39.136Z,75.94
2018-12-22T10:31:39.166Z,75.84
2018-12-22T10:32:39.127Z,75.94
2018-12-22T10:33:39.104Z,75.94
2018-12-22T10:34:39.095Z,75.84
2018-12-22T10:35:39.087Z,76.70
2018-12-22T10:36:39.071Z,75.56
2018-12-22T10:37:39.102Z,75.26
2018-12-22T10:38:39.050Z,75.98
2018-12-22T10:39:39.041Z,76.08
2018-12-22T10:40:39.032Z,75.67
2018-12-22T10:41:39.020Z,74.80
2018-12-22T10:42:39.009Z,75.87
2018-12-22T10:43:39.035Z,76.08
2018-12-22T10:44:38.986Z,74.91
2018-12-22T10:45:38.976Z,74.74
2018-12-22T10:46:38.967Z,74.33
2018-12-22T10:47:38.960Z,74.63
2018-12-22T10:48:38.946Z,74.63
2018-12-22T10:49:38.973Z,74.22
2018-12-22T10:50:38.923Z,74.43
2018-12-22T10:51:38.912Z,74.33
2018-12-22T10:52:38.904Z,75.05
2018-12-22T10:53:38.893Z,74.95
2018-12-22T10:54:38.883Z,74.95
2018-12-22T10:55:38.895Z,74.84
2018-12-22T10:56:38.861Z,74.84
2018-12-22T10:57:38.851Z,74.74
2018-12-22T10:58:38.843Z,74.95
2018-12-22T10:59:38.830Z,75.15
2018-12-22T11:00:38.847Z,74.43
2018-12-22T11:01:38.811Z,74.33
2018-12-22T11:02:38.902Z,74.50
2018-12-22T11:03:38.786Z,76.49
2018-12-22T11:04:38.777Z,76.66
2018-12-22T11:05:38.790Z,76.66
2018-12-22T11:06:38.756Z,75.84
2018-12-22T11:07:38.746Z,76.53
2018-12-22T11:08:38.732Z,76.01
2018-12-22T11:09:38.724Z,75.56
2018-12-22T11:10:38.749Z,76.70
2018-12-22T11:11:38.705Z,72.47
2018-12-22T11:12:38.691Z,72.37
2018-12-22T11:13:38.682Z,72.78
2018-12-22T11:14:38.670Z,72.68
2018-12-22T11:15:38.659Z,72.78
2018-12-22T11:16:38.674Z,72.81
2018-12-22T11:17:38.637Z,73.02
2018-12-22T11:18:38.630Z,72.61
2018-12-22T11:19:38.619Z,72.61
2018-12-22T11:20:38.606Z,72.61
2018-12-22T11:21:38.709Z,72.75
2018-12-22T11:22:38.585Z,73.05
2018-12-22T11:23:38.573Z,72.75
2018-12-22T11:24:38.565Z,72.96
2018-12-22T11:25:38.554Z,72.96
2018-12-22T11:26:38.543Z,72.44
2018-12-22T11:27:38.569Z,72.64
2018-12-22T11:28:38.522Z,72.64
2018-12-22T11:29:38.513Z,73.16
2018-12-22T11:30:38.500Z,73.30
2018-12-22T11:31:38.491Z,72.88
2018-12-22T11:32:38.481Z,72.99
2018-12-22T11:33:38.504Z,73.50
2018-12-22T11:34:38.460Z,73.71
2018-12-22T11:35:38.451Z,72.67
2018-12-22T11:36:38.438Z,72.99
2018-12-22T11:37:38.428Z,73.30
2018-12-22T11:38:38.417Z,72.99
2018-12-22T11:39:38.441Z,72.99
2018-12-22T11:40:38.396Z,72.99
2018-12-22T11:41:38.389Z,72.99
2018-12-22T11:42:38.377Z,73.19
2018-12-22T11:43:38.363Z,72.67
2018-12-22T11:44:38.362Z,72.78
2018-12-22T11:45:38.367Z,73.71
2018-12-22T11:46:38.335Z,73.40
2018-12-22T11:47:38.324Z,73.09
2018-12-22T11:48:38.312Z,73.16
2018-12-22T11:49:38.300Z,72.58
2018-12-22T11:50:38.314Z,72.88
2018-12-22T11:51:38.278Z,73.09
2018-12-22T11:52:39.529Z,72.58
2018-12-22T11:53:38.260Z,72.47
2018-12-22T11:54:38.246Z,72.67
2018-12-22T11:55:38.259Z,72.47
2018-12-22T11:56:38.226Z,72.78
2018-12-22T11:57:38.215Z,73.09
2018-12-22T11:58:38.429Z,73.09
2018-12-22T11:59:38.199Z,72.85
2018-12-22T12:00:38.218Z,72.78
2018-12-22T12:01:43.512Z,72.44
2018-12-22T12:02:39.159Z,73.19
2018-12-22T12:03:38.149Z,72.67
2018-12-22T12:04:38.143Z,73.19
2018-12-22T12:05:38.131Z,73.09
2018-12-22T12:06:38.144Z,73.40
2018-12-22T12:07:38.107Z,73.60
2018-12-22T12:08:38.097Z,73.50
2018-12-22T12:09:38.086Z,72.88
2018-12-22T12:10:38.078Z,72.78
2018-12-22T12:11:38.103Z,72.67
2018-12-22T12:12:38.055Z,72.92
2018-12-22T12:13:38.045Z,72.88
2018-12-22T12:14:38.035Z,74.43
2018-12-22T12:15:38.024Z,73.71
2018-12-22T12:16:38.012Z,72.88
2018-12-22T12:17:38.040Z,72.99
2018-12-22T12:18:37.991Z,72.78
2018-12-22T12:19:38.010Z,73.50
2018-12-22T12:20:37.969Z,74.12
2018-12-22T12:21:37.957Z,73.71
2018-12-22T12:22:37.946Z,74.12
2018-12-22T12:23:37.973Z,74.26
2018-12-22T12:24:37.926Z,74.63
2018-12-22T12:25:37.914Z,74.33
2018-12-22T12:26:37.903Z,74.98
2018-12-22T12:27:37.893Z,74.77
2018-12-22T12:28:37.883Z,75.39
2018-12-22T12:29:37.908Z,76.01
2018-12-22T12:30:37.863Z,76.53
2018-12-22T12:31:37.852Z,75.77
2018-12-22T12:32:37.840Z,74.46
2018-12-22T12:33:37.829Z,74.36
2018-12-22T12:34:37.840Z,74.15
2018-12-22T12:35:37.832Z,74.26
2018-12-22T12:36:37.796Z,73.81
2018-12-22T12:37:37.786Z,73.54
2018-12-22T12:38:37.771Z,73.60
2018-12-22T12:39:37.762Z,73.09
2018-12-22T12:40:37.780Z,72.92
2018-12-22T12:41:37.741Z,72.99
2018-12-22T12:42:37.735Z,73.12
2018-12-22T12:43:37.718Z,72.67
2018-12-22T12:44:37.712Z,73.22
2018-12-22T12:45:37.723Z,73.40
2018-12-22T12:46:37.693Z,73.50
2018-12-22T12:47:37.677Z,72.67
2018-12-22T12:48:37.664Z,73.02
2018-12-22T12:49:37.656Z,72.92
2018-12-22T12:50:37.672Z,73.43
2018-12-22T12:51:37.635Z,73.12
2018-12-22T12:52:37.624Z,73.64